Tuesday, July 7, 2015, 10:30 PM EDT

KSEG, Selinsgrove Penn Valley Airport

Location: Selinsgrove, PA, United States Lat: 40.817
Local Time: 10:30 PM EDT ( 2:30 GMT) Lon: -76.867
Time Zone: US/Eastern Elev: 449 ft

Show me the last for .
Show Decoded

2015-07-07 21:53 METAR KSEG 080153Z AUTO 20004KT 7SM CLR 26/21 A2996 RMK AO2 SLP143 T02610206 =
2015-07-07 20:53 METAR KSEG 080053Z AUTO 00000KT 7SM BKN090 27/21 A2995 RMK AO2 SLP138 T02670206
                 =
2015-07-07 19:53 METAR KSEG 072353Z AUTO 18003KT 6SM HZ CLR 27/21 A2994 RMK AO2 SLP136 T02720206
                 10300 20272 55002 =
2015-07-07 18:53 METAR KSEG 072253Z AUTO 19007KT 6SM HZ CLR 28/21 A2994 RMK AO2 SLP134 T02830211
                 =
2015-07-07 17:53 METAR KSEG 072153Z AUTO 19007G14KT 6SM HZ CLR 29/21 A2994 RMK AO2 SLP136
                 T02890211 =
2015-07-07 16:53 METAR KSEG 072053Z AUTO 21007KT 170V260 6SM HZ CLR 30/21 A2995 RMK AO2 SLP138
                 T03000211 56014 =
2015-07-07 15:53 METAR KSEG 071953Z AUTO 21007KT 6SM HZ CLR 30/20 A2996 RMK AO2 SLP141 T03000200
                 =
2015-07-07 14:53 METAR KSEG 071853Z AUTO VRB06KT 6SM HZ FEW040 29/21 A2997 RMK AO2 SLP145
                 T02940206 =
2015-07-07 13:53 METAR KSEG 071753Z AUTO VRB05KT 7SM CLR 29/21 A2999 RMK AO2 SLP152 60001
                 T02890206 10289 20228 58015 =
2015-07-07 12:53 METAR KSEG 071653Z AUTO VRB04KT 8SM FEW037 FEW060 28/22 A3001 RMK AO2 RAB23E37
                 SLP159 P0001 T02780217 =
2015-07-07 12:29 METAR KSEG 071629Z AUTO VRB04KT 3SM -RA SCT023 BKN033 OVC055 25/21 A3002 RMK AO2
                 RAB23 P0001 T02500206 TSNO =
2015-07-07 12:13 METAR KSEG 071613Z AUTO 28005KT 8SM BKN022 BKN036 BKN100 27/22 A3002 RMK AO2
                 T02720217 =
2015-07-07 11:53 METAR KSEG 071553Z AUTO 27003KT 8SM FEW023 BKN110 27/22 A3002 RMK AO2 RAE1454
                 SLP163 P0000 T02720217 TSNO =
2015-07-07 10:53 METAR KSEG 071453Z AUTO 00000KT 8SM -RA FEW025 BKN070 OVC090 24/21 A3004 RMK AO2
                 RAB39 SLP168 P0000 60000 T02440211 56000 =
2015-07-07 10:51 METAR KSEG 071451Z AUTO VRB04KT 7SM -RA SCT025 SCT048 OVC070 24/22 A3004 RMK AO2
                 RAB39 P0000 =
2015-07-07 10:05 METAR KSEG 071405Z AUTO 21005KT 9SM SCT013 SCT020 BKN026 26/22 A3003 RMK AO2
                 T02560217 =
2015-07-07 09:53 METAR KSEG 071353Z AUTO VRB04KT 9SM BKN013 25/22 A3003 RMK AO2 SLP167 T02500217
                 =
2015-07-07 09:27 METAR KSEG 071327Z AUTO 17005KT 8SM FEW012 SCT021 SCT027 24/22 A3003 RMK AO2
                 T02440217 =
2015-07-07 08:53 METAR KSEG 071253Z AUTO VRB03KT 7SM FEW010 BKN016 BKN021 24/22 A3004 RMK AO2
                 SLP168 T02440217 =
2015-07-07 08:45 METAR KSEG 071245Z AUTO 20004KT 7SM FEW008 BKN012 BKN017 24/22 A3004 RMK AO2
                 T02390217 =
2015-07-07 08:22 METAR KSEG 071222Z AUTO 19003KT 4SM BR BKN006 OVC065 23/22 A3004 RMK AO2 CIG
                 005V011 T02330217 =
2015-07-07 07:53 METAR KSEG 071153Z AUTO 18003KT 4SM BR FEW009 FEW013 BKN060 23/22 A3003 RMK AO2
                 SLP166 70039 T02280217 10228 20222 51004 =
2015-07-07 07:49 METAR KSEG 071149Z AUTO 00000KT 4SM BR FEW009 BKN060 23/22 A3003 RMK AO2 =
2015-07-07 07:38 METAR KSEG 071138Z AUTO 00000KT 4SM BR SCT011 BKN032 OVC060 23/22 A3004 RMK AO2
                 T02280217 =
2015-07-07 07:16 METAR KSEG 071116Z AUTO 21004KT 4SM BR SCT010 BKN027 OVC055 23/22 A3004 RMK AO2
                 T02280217 =
2015-07-07 07:00 METAR KSEG 071100Z AUTO VRB04KT 3SM BR FEW005 BKN009 OVC055 23/21 A3004 RMK AO2
                 T02280211 =
2015-07-07 06:53 METAR KSEG 071053Z AUTO 00000KT 3SM BR SCT006 BKN011 OVC055 23/22 A3003 RMK AO2
                 SLP166 T02280217 =
2015-07-07 06:15 METAR KSEG 071015Z AUTO 00000KT 3SM BR FEW008 OVC012 23/22 A3002 RMK AO2
                 T02280217 =
2015-07-07 05:53 METAR KSEG 070953Z AUTO 00000KT 5SM BR OVC012 23/22 A3002 RMK AO2 SLP162
                 T02280217 =
2015-07-07 05:34 METAR KSEG 070934Z AUTO 00000KT 6SM BR BKN007 OVC013 22/22 A3002 RMK AO2 CIG
                 004V010 T02220217 =
2015-07-07 05:07 METAR KSEG 070907Z AUTO 00000KT 5SM BR BKN005 OVC012 23/22 A3001 RMK AO2
                 T02280217 =
2015-07-07 04:23 METAR KSEG 070823Z AUTO 00000KT 5SM BR SCT009 OVC013 22/22 A3001 RMK AO2
                 T02220217 =
2015-07-07 04:10 METAR KSEG 070810Z AUTO 00000KT 5SM BR SCT009 OVC015 22/21 A3001 RMK AO2
                 T02220211 =
2015-07-07 03:53 METAR KSEG 070753Z AUTO 00000KT 5SM BR OVC015 22/21 A3001 RMK AO2 SLP159
                 T02220211 =
2015-07-07 03:41 METAR KSEG 070741Z AUTO 00000KT 6SM BR OVC015 22/21 A3001 RMK AO2 T02220211 =
2015-07-07 03:30 METAR KSEG 070730Z AUTO 00000KT 6SM BR OVC013 22/21 A3001 RMK AO2 T02220211 =
2015-07-07 02:53 METAR KSEG 070653Z AUTO 00000KT 5SM BR OVC018 22/21 A3001 RMK AO2 SLP159
                 T02220211 =
2015-07-07 01:53 METAR KSEG 070553Z AUTO 00000KT 8SM BKN022 BKN041 22/21 A3002 RMK AO2 RAB0455E20
                 SLP161 P0037 60039 T02220211 10256 20217 56005 =
2015-07-07 01:37 METAR KSEG 070537Z AUTO 00000KT 9SM SCT020 SCT028 BKN041 22/21 A3002 RMK AO2
                 RAB0455E20 P0037 T02220211 =
2015-07-07 01:15 METAR KSEG 070515Z AUTO VRB03KT 3SM -RA BR SCT015 BKN025 BKN055 22/21 A3002 RMK
                 AO2 RAB0455 P0037 T02220211 =
2015-07-07 01:13 METAR KSEG 070513Z AUTO 00000KT 1 1/2SM -RA BR SCT015 BKN025 OVC090 22/21 A3002
                 RMK AO2 RAB0455 P0037 T02220211 =
2015-07-07 01:01 METAR KSEG 070501Z AUTO VRB04KT 3/4SM +RA BR OVC016 23/22 A3003 RMK AO2 RAB0455
                 P0023 T02280217 =
2015-07-07 00:59 METAR KSEG 070459Z AUTO VRB05KT 1 1/2SM -RA BR FEW011 OVC018 23/22 A3003 RMK AO2
                 RAB55 P0013 T02280217 =
2015-07-07 00:53 METAR KSEG 070453Z AUTO 23003KT 6SM BR OVC018 23/22 A3002 RMK AO2 RAB29E51
                 SLP163 P0000 T02280222 402890183 =
2015-07-06 23:53 METAR KSEG 070353Z AUTO 00000KT 6SM BR BKN021 BKN031 OVC042 23/22 A3003 RMK AO2
                 RAB08E26 SLP166 P0002 T02330217 =
2015-07-06 23:19 METAR KSEG 070319Z AUTO 00000KT 4SM -RA BR BKN023 BKN028 OVC044 23/22 A3003 RMK
                 AO2 RAB08 P0002 T02330217 =
2015-07-06 22:53 METAR KSEG 070253Z AUTO 16006KT 10SM FEW036 OVC085 24/21 A3004 RMK AO2 RAB26E40
                 SLP168 P0000 60000 T02390211 56001 =

Support USWX by starting your Amazon purchase here.